sensor_id;sensor_type;location;lat;lon;timestamp;pressure;altitude;pressure_sealevel;temperature;humidity
79077;BME280;68477;42.698;23.342;2023-07-24T00:01:50;95627.81;;;20.68;66.38
79077;BME280;68477;42.698;23.342;2023-07-24T00:04:16;95623.13;;;20.52;67.33
79077;BME280;68477;42.698;23.342;2023-07-24T00:06:41;95624.22;;;21.04;65.35
79077;BME280;68477;42.698;23.342;2023-07-24T00:09:06;95629.13;;;21.37;63.21
79077;BME280;68477;42.698;23.342;2023-07-24T00:11:32;95625.53;;;21.43;62.97
79077;BME280;68477;42.698;23.342;2023-07-24T00:13:57;95618.25;;;21.20;63.87
79077;BME280;68477;42.698;23.342;2023-07-24T00:16:23;95624.63;;;21.19;64.15
79077;BME280;68477;42.698;23.342;2023-07-24T00:18:48;95618.47;;;20.77;66.03
79077;BME280;68477;42.698;23.342;2023-07-24T00:21:14;95620.44;;;20.82;64.86
79077;BME280;68477;42.698;23.342;2023-07-24T00:23:39;95630.09;;;21.25;63.59
79077;BME280;68477;42.698;23.342;2023-07-24T00:26:04;95629.88;;;20.84;64.68
79077;BME280;68477;42.698;23.342;2023-07-24T00:28:30;95639.50;;;20.74;64.32
79077;BME280;68477;42.698;23.342;2023-07-24T00:30:55;95636.06;;;21.27;63.17
79077;BME280;68477;42.698;23.342;2023-07-24T00:33:21;95628.56;;;20.02;66.71
79077;BME280;68477;42.698;23.342;2023-07-24T00:35:47;95619.88;;;21.21;62.17
79077;BME280;68477;42.698;23.342;2023-07-24T00:38:12;95613.81;;;20.36;64.72
79077;BME280;68477;42.698;23.342;2023-07-24T00:40:38;95619.81;;;20.68;63.94
79077;BME280;68477;42.698;23.342;2023-07-24T00:43:03;95611.25;;;21.08;62.78
79077;BME280;68477;42.698;23.342;2023-07-24T00:45:29;95620.09;;;20.60;63.72
79077;BME280;68477;42.698;23.342;2023-07-24T00:47:56;95619.00;;;20.98;62.76
79077;BME280;68477;42.698;23.342;2023-07-24T00:50:21;95609.66;;;19.85;66.13
79077;BME280;68477;42.698;23.342;2023-07-24T00:52:48;95613.88;;;19.49;67.86
79077;BME280;68477;42.698;23.342;2023-07-24T00:55:13;95616.91;;;19.78;65.82
79077;BME280;68477;42.698;23.342;2023-07-24T00:57:41;95609.38;;;20.48;64.40
79077;BME280;68477;42.698;23.342;2023-07-24T01:00:07;95613.19;;;19.61;67.06
79077;BME280;68477;42.698;23.342;2023-07-24T01:02:34;95612.69;;;19.89;65.66
79077;BME280;68477;42.698;23.342;2023-07-24T01:05:00;95611.38;;;20.53;64.01
79077;BME280;68477;42.698;23.342;2023-07-24T01:07:26;95620.84;;;19.75;66.21
79077;BME280;68477;42.698;23.342;2023-07-24T01:09:51;95607.22;;;20.02;65.30
79077;BME280;68477;42.698;23.342;2023-07-24T01:12:19;95606.28;;;19.46;66.08
79077;BME280;68477;42.698;23.342;2023-07-24T01:14:56;95608.31;;;19.51;65.11
79077;BME280;68477;42.698;23.342;2023-07-24T01:17:24;95607.59;;;20.24;63.25
79077;BME280;68477;42.698;23.342;2023-07-24T01:19:58;95613.91;;;20.29;61.95
79077;BME280;68477;42.698;23.342;2023-07-24T01:22:32;95604.63;;;20.14;62.79
79077;BME280;68477;42.698;23.342;2023-07-24T01:25:27;95610.66;;;19.66;64.67
79077;BME280;68477;42.698;23.342;2023-07-24T01:27:54;95600.00;;;19.41;66.03
79077;BME280;68477;42.698;23.342;2023-07-24T01:30:20;95597.81;;;19.06;67.33
79077;BME280;68477;42.698;23.342;2023-07-24T01:32:46;95587.94;;;20.00;64.46
79077;BME280;68477;42.698;23.342;2023-07-24T01:35:12;95594.88;;;20.38;62.71
79077;BME280;68477;42.698;23.342;2023-07-24T01:37:38;95588.38;;;19.54;65.20
79077;BME280;68477;42.698;23.342;2023-07-24T01:40:06;95596.69;;;19.89;64.39
79077;BME280;68477;42.698;23.342;2023-07-24T01:42:34;95607.91;;;20.52;62.40
79077;BME280;68477;42.698;23.342;2023-07-24T01:44:59;95617.91;;;20.57;60.99
79077;BME280;68477;42.698;23.342;2023-07-24T01:47:25;95626.81;;;21.53;58.59
79077;BME280;68477;42.698;23.342;2023-07-24T01:49:51;95626.81;;;21.41;58.30
79077;BME280;68477;42.698;23.342;2023-07-24T01:52:17;95623.19;;;19.65;65.19
79077;BME280;68477;42.698;23.342;2023-07-24T01:54:43;95617.94;;;18.64;68.53
79077;BME280;68477;42.698;23.342;2023-07-24T01:57:08;95605.31;;;19.16;67.29
79077;BME280;68477;42.698;23.342;2023-07-24T01:59:33;95613.94;;;18.86;68.58
79077;BME280;68477;42.698;23.342;2023-07-24T02:01:59;95616.69;;;19.80;65.13
79077;BME280;68477;42.698;23.342;2023-07-24T02:04:24;95619.22;;;19.49;65.92
79077;BME280;68477;42.698;23.342;2023-07-24T02:06:50;95613.47;;;19.46;66.47
79077;BME280;68477;42.698;23.342;2023-07-24T02:09:18;95610.69;;;18.78;68.69
79077;BME280;68477;42.698;23.342;2023-07-24T02:11:43;95613.34;;;18.78;69.78
79077;BME280;68477;42.698;23.342;2023-07-24T02:14:09;95611.16;;;19.00;67.98
79077;BME280;68477;42.698;23.342;2023-07-24T02:16:35;95605.81;;;19.31;67.32
79077;BME280;68477;42.698;23.342;2023-07-24T02:19:00;95606.50;;;19.45;66.66
79077;BME280;68477;42.698;23.342;2023-07-24T02:21:26;95609.53;;;19.98;64.61
79077;BME280;68477;42.698;23.342;2023-07-24T02:23:51;95612.84;;;19.51;66.22
79077;BME280;68477;42.698;23.342;2023-07-24T02:26:17;95612.66;;;18.51;70.55
79077;BME280;68477;42.698;23.342;2023-07-24T02:28:42;95610.06;;;18.38;71.15
79077;BME280;68477;42.698;23.342;2023-07-24T02:31:08;95605.22;;;19.29;67.48
79077;BME280;68477;42.698;23.342;2023-07-24T02:33:33;95599.31;;;19.45;66.92
79077;BME280;68477;42.698;23.342;2023-07-24T02:36:00;95600.75;;;19.48;66.62
79077;BME280;68477;42.698;23.342;2023-07-24T02:38:26;95615.19;;;19.15;67.12
79077;BME280;68477;42.698;23.342;2023-07-24T02:40:52;95608.59;;;18.86;68.59
79077;BME280;68477;42.698;23.342;2023-07-24T02:43:17;95605.50;;;18.45;70.00
79077;BME280;68477;42.698;23.342;2023-07-24T02:45:42;95605.97;;;19.36;67.26
79077;BME280;68477;42.698;23.342;2023-07-24T02:48:08;95604.25;;;20.10;63.74
79077;BME280;68477;42.698;23.342;2023-07-24T02:50:33;95607.22;;;19.59;64.76
79077;BME280;68477;42.698;23.342;2023-07-24T02:52:59;95601.47;;;18.80;68.42
79077;BME280;68477;42.698;23.342;2023-07-24T02:55:24;95601.25;;;18.82;67.78
79077;BME280;68477;42.698;23.342;2023-07-24T02:57:50;95602.75;;;18.20;70.77
79077;BME280;68477;42.698;23.342;2023-07-24T03:00:16;95599.97;;;17.88;71.81
79077;BME280;68477;42.698;23.342;2023-07-24T03:02:42;95604.28;;;17.96;71.93
79077;BME280;68477;42.698;23.342;2023-07-24T03:05:07;95596.63;;;18.64;69.77
79077;BME280;68477;42.698;23.342;2023-07-24T03:07:33;95589.56;;;19.83;65.30
79077;BME280;68477;42.698;23.342;2023-07-24T03:09:59;95592.63;;;18.80;68.34
79077;BME280;68477;42.698;23.342;2023-07-24T03:12:24;95591.78;;;18.48;70.22
79077;BME280;68477;42.698;23.342;2023-07-24T03:14:50;95594.00;;;19.20;67.92
79077;BME280;68477;42.698;23.342;2023-07-24T03:17:15;95598.88;;;19.24;67.60
79077;BME280;68477;42.698;23.342;2023-07-24T03:19:41;95603.84;;;18.95;68.03
79077;BME280;68477;42.698;23.342;2023-07-24T03:22:06;95603.50;;;18.78;68.95
79077;BME280;68477;42.698;23.342;2023-07-24T03:24:33;95596.91;;;18.49;70.61
79077;BME280;68477;42.698;23.342;2023-07-24T03:26:58;95599.69;;;18.68;68.97
79077;BME280;68477;42.698;23.342;2023-07-24T03:29:25;95602.91;;;18.31;70.63
79077;BME280;68477;42.698;23.342;2023-07-24T03:31:51;95604.03;;;18.55;69.54
79077;BME280;68477;42.698;23.342;2023-07-24T03:34:16;95604.53;;;18.77;68.98
79077;BME280;68477;42.698;23.342;2023-07-24T03:36:42;95606.66;;;18.62;68.90
79077;BME280;68477;42.698;23.342;2023-07-24T03:39:09;95598.88;;;19.24;67.07
79077;BME280;68477;42.698;23.342;2023-07-24T03:41:35;95601.78;;;19.22;67.11
79077;BME280;68477;42.698;23.342;2023-07-24T03:44:00;95608.44;;;18.37;70.63
79077;BME280;68477;42.698;23.342;2023-07-24T03:46:26;95606.94;;;18.02;72.42
79077;BME280;68477;42.698;23.342;2023-07-24T03:48:51;95602.75;;;18.26;71.43
79077;BME280;68477;42.698;23.342;2023-07-24T03:51:17;95599.34;;;18.51;69.90
79077;BME280;68477;42.698;23.342;2023-07-24T03:53:43;95608.94;;;18.58;69.38
79077;BME280;68477;42.698;23.342;2023-07-24T03:56:08;95613.84;;;19.00;67.95
79077;BME280;68477;42.698;23.342;2023-07-24T03:58:33;95616.28;;;18.70;68.72
79077;BME280;68477;42.698;23.342;2023-07-24T04:00:59;95616.16;;;18.45;70.57
79077;BME280;68477;42.698;23.342;2023-07-24T04:03:24;95616.25;;;18.76;69.14
79077;BME280;68477;42.698;23.342;2023-07-24T04:05:50;95606.50;;;18.95;68.38
79077;BME280;68477;42.698;23.342;2023-07-24T04:08:15;95611.63;;;19.46;66.73
79077;BME280;68477;42.698;23.342;2023-07-24T04:10:41;95616.63;;;19.11;67.99
79077;BME280;68477;42.698;23.342;2023-07-24T04:13:06;95619.03;;;19.44;66.75
79077;BME280;68477;42.698;23.342;2023-07-24T04:15:32;95615.88;;;19.04;68.44
79077;BME280;68477;42.698;23.342;2023-07-24T04:17:57;95614.66;;;19.00;68.73
79077;BME280;68477;42.698;23.342;2023-07-24T04:20:22;95620.47;;;19.72;66.42
79077;BME280;68477;42.698;23.342;2023-07-24T04:22:48;95627.28;;;19.68;67.09
79077;BME280;68477;42.698;23.342;2023-07-24T04:25:13;95622.78;;;19.87;65.86
79077;BME280;68477;42.698;23.342;2023-07-24T04:27:39;95622.81;;;20.05;65.12
79077;BME280;68477;42.698;23.342;2023-07-24T04:30:05;95638.50;;;19.76;66.33
79077;BME280;68477;42.698;23.342;2023-07-24T04:32:31;95632.81;;;19.16;67.82
79077;BME280;68477;42.698;23.342;2023-07-24T04:34:56;95634.13;;;19.82;65.98
79077;BME280;68477;42.698;23.342;2023-07-24T04:37:22;95628.66;;;19.95;65.74
79077;BME280;68477;42.698;23.342;2023-07-24T04:39:47;95624.09;;;19.77;66.58
79077;BME280;68477;42.698;23.342;2023-07-24T04:42:13;95617.97;;;19.27;68.51
79077;BME280;68477;42.698;23.342;2023-07-24T04:44:38;95624.41;;;19.13;68.71
79077;BME280;68477;42.698;23.342;2023-07-24T04:47:04;95633.66;;;19.35;67.85
79077;BME280;68477;42.698;23.342;2023-07-24T04:49:30;95633.63;;;20.10;65.30
79077;BME280;68477;42.698;23.342;2023-07-24T04:51:56;95627.94;;;20.06;65.16
79077;BME280;68477;42.698;23.342;2023-07-24T04:54:21;95628.97;;;20.05;65.54
79077;BME280;68477;42.698;23.342;2023-07-24T04:56:46;95634.22;;;19.94;66.68
79077;BME280;68477;42.698;23.342;2023-07-24T04:59:12;95624.63;;;19.36;68.06
79077;BME280;68477;42.698;23.342;2023-07-24T05:01:37;95628.22;;;20.17;65.19
79077;BME280;68477;42.698;23.342;2023-07-24T05:04:03;95632.38;;;20.31;63.66
79077;BME280;68477;42.698;23.342;2023-07-24T05:06:28;95629.84;;;20.36;63.33
79077;BME280;68477;42.698;23.342;2023-07-24T05:08:54;95634.91;;;20.08;64.27
79077;BME280;68477;42.698;23.342;2023-07-24T05:11:19;95629.56;;;20.62;63.17
79077;BME280;68477;42.698;23.342;2023-07-24T05:13:45;95636.16;;;20.42;63.60
79077;BME280;68477;42.698;23.342;2023-07-24T05:16:10;95632.75;;;20.53;62.84
79077;BME280;68477;42.698;23.342;2023-07-24T05:18:36;95624.88;;;20.40;63.13
79077;BME280;68477;42.698;23.342;2023-07-24T05:21:01;95629.81;;;20.43;63.49
79077;BME280;68477;42.698;23.342;2023-07-24T05:23:27;95629.13;;;20.29;64.16
79077;BME280;68477;42.698;23.342;2023-07-24T05:26:01;95618.19;;;20.49;62.83
79077;BME280;68477;42.698;23.342;2023-07-24T05:28:28;95617.88;;;20.75;62.30
79077;BME280;68477;42.698;23.342;2023-07-24T05:30:53;95627.91;;;20.91;61.02
79077;BME280;68477;42.698;23.342;2023-07-24T05:33:19;95623.16;;;20.93;61.32
79077;BME280;68477;42.698;23.342;2023-07-24T05:35:45;95631.28;;;21.29;60.61
79077;BME280;68477;42.698;23.342;2023-07-24T05:38:10;95627.50;;;21.48;59.77
79077;BME280;68477;42.698;23.342;2023-07-24T05:40:36;95623.41;;;21.34;60.56
79077;BME280;68477;42.698;23.342;2023-07-24T05:43:01;95622.47;;;21.28;59.77
79077;BME280;68477;42.698;23.342;2023-07-24T05:45:27;95619.19;;;21.26;61.04
79077;BME280;68477;42.698;23.342;2023-07-24T05:47:53;95610.50;;;21.42;58.21
79077;BME280;68477;42.698;23.342;2023-07-24T05:50:19;95614.03;;;21.13;58.73
79077;BME280;68477;42.698;23.342;2023-07-24T05:52:44;95608.53;;;21.61;57.55
79077;BME280;68477;42.698;23.342;2023-07-24T05:55:10;95608.06;;;21.99;57.23
79077;BME280;68477;42.698;23.342;2023-07-24T05:57:36;95606.91;;;21.95;56.97
79077;BME280;68477;42.698;23.342;2023-07-24T06:00:05;95611.00;;;21.98;57.05
79077;BME280;68477;42.698;23.342;2023-07-24T06:02:31;95611.78;;;22.33;56.22
79077;BME280;68477;42.698;23.342;2023-07-24T06:04:56;95603.47;;;22.47;56.26
79077;BME280;68477;42.698;23.342;2023-07-24T06:07:22;95591.75;;;22.53;55.84
79077;BME280;68477;42.698;23.342;2023-07-24T06:09:47;95594.00;;;21.69;57.59
79077;BME280;68477;42.698;23.342;2023-07-24T06:12:13;95599.06;;;22.29;55.74
79077;BME280;68477;42.698;23.342;2023-07-24T06:14:39;95602.91;;;22.33;55.16
79077;BME280;68477;42.698;23.342;2023-07-24T06:17:04;95599.31;;;22.27;55.38
79077;BME280;68477;42.698;23.342;2023-07-24T06:19:30;95592.91;;;22.05;56.11
79077;BME280;68477;42.698;23.342;2023-07-24T06:21:55;95595.91;;;22.44;54.60
79077;BME280;68477;42.698;23.342;2023-07-24T06:24:21;95594.75;;;22.97;53.75
79077;BME280;68477;42.698;23.342;2023-07-24T06:26:49;95606.38;;;22.74;54.38
79077;BME280;68477;42.698;23.342;2023-07-24T06:29:14;95596.91;;;23.11;53.37
79077;BME280;68477;42.698;23.342;2023-07-24T06:31:40;95595.75;;;23.07;53.45
79077;BME280;68477;42.698;23.342;2023-07-24T06:34:05;95595.16;;;23.34;52.55
79077;BME280;68477;42.698;23.342;2023-07-24T06:36:31;95600.09;;;23.25;53.18
79077;BME280;68477;42.698;23.342;2023-07-24T06:38:56;95593.25;;;23.51;52.48
79077;BME280;68477;42.698;23.342;2023-07-24T06:41:22;95597.31;;;23.53;51.70
79077;BME280;68477;42.698;23.342;2023-07-24T06:43:48;95592.19;;;23.18;52.33
79077;BME280;68477;42.698;23.342;2023-07-24T06:46:14;95588.78;;;23.40;52.55
79077;BME280;68477;42.698;23.342;2023-07-24T06:48:39;95594.88;;;23.86;50.97
79077;BME280;68477;42.698;23.342;2023-07-24T06:51:05;95601.97;;;23.75;50.83
79077;BME280;68477;42.698;23.342;2023-07-24T06:53:30;95599.03;;;23.76;51.99
79077;BME280;68477;42.698;23.342;2023-07-24T06:55:56;95597.41;;;23.75;51.40
79077;BME280;68477;42.698;23.342;2023-07-24T06:58:21;95595.13;;;23.84;52.12
79077;BME280;68477;42.698;23.342;2023-07-24T07:00:47;95595.03;;;24.34;50.12
79077;BME280;68477;42.698;23.342;2023-07-24T07:03:12;95589.09;;;24.32;50.18
79077;BME280;68477;42.698;23.342;2023-07-24T07:05:37;95596.91;;;24.34;50.13
79077;BME280;68477;42.698;23.342;2023-07-24T07:08:03;95593.91;;;24.52;50.94
79077;BME280;68477;42.698;23.342;2023-07-24T07:10:30;95600.31;;;24.95;48.97
79077;BME280;68477;42.698;23.342;2023-07-24T07:12:56;95606.69;;;24.89;49.33
79077;BME280;68477;42.698;23.342;2023-07-24T07:15:21;95601.59;;;25.14;47.70
79077;BME280;68477;42.698;23.342;2023-07-24T07:17:47;95593.75;;;25.40;47.98
79077;BME280;68477;42.698;23.342;2023-07-24T07:20:12;95591.25;;;25.65;47.16
79077;BME280;68477;42.698;23.342;2023-07-24T07:22:37;95592.38;;;25.69;46.55
79077;BME280;68477;42.698;23.342;2023-07-24T07:25:03;95579.66;;;25.33;47.36
79077;BME280;68477;42.698;23.342;2023-07-24T07:27:29;95586.63;;;25.61;47.02
79077;BME280;68477;42.698;23.342;2023-07-24T07:29:54;95586.31;;;25.89;46.51
79077;BME280;68477;42.698;23.342;2023-07-24T07:32:19;95577.75;;;25.97;46.48
79077;BME280;68477;42.698;23.342;2023-07-24T07:34:45;95575.25;;;25.91;46.51
79077;BME280;68477;42.698;23.342;2023-07-24T07:37:10;95577.16;;;25.53;47.49
79077;BME280;68477;42.698;23.342;2023-07-24T07:39:36;95575.31;;;25.96;46.25
79077;BME280;68477;42.698;23.342;2023-07-24T07:42:01;95575.13;;;26.12;45.66
79077;BME280;68477;42.698;23.342;2023-07-24T07:44:27;95576.03;;;26.33;44.94
79077;BME280;68477;42.698;23.342;2023-07-24T07:46:52;95575.03;;;26.39;45.29
79077;BME280;68477;42.698;23.342;2023-07-24T07:49:18;95581.63;;;26.74;43.39
79077;BME280;68477;42.698;23.342;2023-07-24T07:51:43;95576.19;;;26.69;43.95
79077;BME280;68477;42.698;23.342;2023-07-24T07:54:09;95578.41;;;26.87;44.17
79077;BME280;68477;42.698;23.342;2023-07-24T07:56:34;95571.44;;;27.63;42.92
79077;BME280;68477;42.698;23.342;2023-07-24T07:58:59;95575.25;;;27.36;42.37
79077;BME280;68477;42.698;23.342;2023-07-24T08:01:25;95574.97;;;27.27;42.92
79077;BME280;68477;42.698;23.342;2023-07-24T08:03:50;95573.34;;;27.26;44.00
79077;BME280;68477;42.698;23.342;2023-07-24T08:06:16;95572.81;;;27.19;44.33
79077;BME280;68477;42.698;23.342;2023-07-24T08:08:42;95573.09;;;27.43;42.06
79077;BME280;68477;42.698;23.342;2023-07-24T08:11:08;95569.84;;;27.21;42.06
79077;BME280;68477;42.698;23.342;2023-07-24T08:13:34;95581.47;;;27.57;41.56
79077;BME280;68477;42.698;23.342;2023-07-24T08:15:59;95572.03;;;27.75;40.72
79077;BME280;68477;42.698;23.342;2023-07-24T08:18:27;95571.91;;;28.26;40.06
79077;BME280;68477;42.698;23.342;2023-07-24T08:20:52;95566.88;;;27.89;40.35
79077;BME280;68477;42.698;23.342;2023-07-24T08:23:18;95565.53;;;27.71;41.24
79077;BME280;68477;42.698;23.342;2023-07-24T08:25:53;95563.53;;;28.17;40.32
79077;BME280;68477;42.698;23.342;2023-07-24T08:28:19;95552.22;;;28.75;39.41
79077;BME280;68477;42.698;23.342;2023-07-24T08:30:45;95550.13;;;28.61;38.33
79077;BME280;68477;42.698;23.342;2023-07-24T08:33:12;95545.06;;;28.45;38.30
79077;BME280;68477;42.698;23.342;2023-07-24T08:35:38;95543.88;;;28.66;37.94
79077;BME280;68477;42.698;23.342;2023-07-24T08:38:03;95544.28;;;28.93;37.50
79077;BME280;68477;42.698;23.342;2023-07-24T08:40:30;95537.97;;;28.54;37.55
79077;BME280;68477;42.698;23.342;2023-07-24T08:42:56;95537.91;;;28.69;37.56
79077;BME280;68477;42.698;23.342;2023-07-24T08:45:23;95533.84;;;29.50;36.65
79077;BME280;68477;42.698;23.342;2023-07-24T08:47:49;95528.63;;;29.24;36.80
79077;BME280;68477;42.698;23.342;2023-07-24T08:50:16;95529.22;;;29.16;36.74
79077;BME280;68477;42.698;23.342;2023-07-24T08:52:42;95529.72;;;29.58;36.32
79077;BME280;68477;42.698;23.342;2023-07-24T08:55:10;95532.09;;;29.64;35.24
79077;BME280;68477;42.698;23.342;2023-07-24T08:57:36;95533.63;;;29.99;34.55
79077;BME280;68477;42.698;23.342;2023-07-24T09:00:03;95532.44;;;29.23;35.67
79077;BME280;68477;42.698;23.342;2023-07-24T09:02:34;95530.63;;;29.43;35.28
79077;BME280;68477;42.698;23.342;2023-07-24T09:05:00;95536.75;;;29.88;34.67
79077;BME280;68477;42.698;23.342;2023-07-24T09:07:25;95520.84;;;29.47;36.23
79077;BME280;68477;42.698;23.342;2023-07-24T09:09:50;95525.69;;;30.08;35.11
79077;BME280;68477;42.698;23.342;2023-07-24T09:12:16;95523.94;;;30.41;33.44
79077;BME280;68477;42.698;23.342;2023-07-24T09:14:41;95526.06;;;30.87;33.17
79077;BME280;68477;42.698;23.342;2023-07-24T09:17:09;95524.03;;;30.36;32.04
79077;BME280;68477;42.698;23.342;2023-07-24T09:19:37;95514.13;;;30.45;32.31
79077;BME280;68477;42.698;23.342;2023-07-24T09:22:12;95522.50;;;30.49;32.87
79077;BME280;68477;42.698;23.342;2023-07-24T09:24:58;95510.22;;;30.08;33.60
79077;BME280;68477;42.698;23.342;2023-07-24T09:27:28;95499.84;;;30.16;34.97
79077;BME280;68477;42.698;23.342;2023-07-24T09:29:55;95501.25;;;30.75;32.85
79077;BME280;68477;42.698;23.342;2023-07-24T09:32:27;95497.59;;;30.84;32.33
79077;BME280;68477;42.698;23.342;2023-07-24T09:34:53;95494.97;;;31.12;32.51
79077;BME280;68477;42.698;23.342;2023-07-24T09:37:37;95496.00;;;31.35;32.44
79077;BME280;68477;42.698;23.342;2023-07-24T09:40:06;95490.50;;;31.40;31.04
79077;BME280;68477;42.698;23.342;2023-07-24T09:42:33;95480.09;;;31.28;31.51
79077;BME280;68477;42.698;23.342;2023-07-24T09:45:00;95485.53;;;31.09;32.01
79077;BME280;68477;42.698;23.342;2023-07-24T09:47:26;95472.66;;;31.47;31.34
79077;BME280;68477;42.698;23.342;2023-07-24T09:49:52;95466.19;;;31.90;31.22
79077;BME280;68477;42.698;23.342;2023-07-24T09:52:19;95465.97;;;31.72;30.62
79077;BME280;68477;42.698;23.342;2023-07-24T09:57:28;95462.56;;;32.22;29.99
79077;BME280;68477;42.698;23.342;2023-07-24T09:59:56;95462.56;;;32.71;28.59
79077;BME280;68477;42.698;23.342;2023-07-24T10:02:22;95460.16;;;32.20;30.67
79077;BME280;68477;42.698;23.342;2023-07-24T10:04:49;95458.22;;;32.34;30.66
79077;BME280;68477;42.698;23.342;2023-07-24T10:07:14;95462.56;;;32.35;28.89
79077;BME280;68477;42.698;23.342;2023-07-24T10:09:42;95453.56;;;32.62;29.85
79077;BME280;68477;42.698;23.342;2023-07-24T10:12:09;95448.69;;;32.59;28.98
79077;BME280;68477;42.698;23.342;2023-07-24T10:14:35;95446.91;;;33.13;28.82
79077;BME280;68477;42.698;23.342;2023-07-24T10:17:01;95442.88;;;33.11;29.29
79077;BME280;68477;42.698;23.342;2023-07-24T10:19:35;95436.59;;;33.33;28.27
79077;BME280;68477;42.698;23.342;2023-07-24T10:22:02;95436.72;;;32.83;27.98
79077;BME280;68477;42.698;23.342;2023-07-24T10:24:33;95431.44;;;33.00;27.91
79077;BME280;68477;42.698;23.342;2023-07-24T10:26:58;95426.59;;;32.97;28.14
79077;BME280;68477;42.698;23.342;2023-07-24T10:29:26;95426.06;;;33.17;28.50
79077;BME280;68477;42.698;23.342;2023-07-24T10:31:54;95417.94;;;33.48;27.48
79077;BME280;68477;42.698;23.342;2023-07-24T10:34:20;95412.44;;;33.40;27.65
79077;BME280;68477;42.698;23.342;2023-07-24T10:36:46;95413.06;;;33.14;28.93
79077;BME280;68477;42.698;23.342;2023-07-24T10:39:15;95410.94;;;33.56;28.46
79077;BME280;68477;42.698;23.342;2023-07-24T10:41:42;95417.75;;;32.78;30.01
79077;BME280;68477;42.698;23.342;2023-07-24T10:44:09;95420.63;;;32.95;29.43
79077;BME280;68477;42.698;23.342;2023-07-24T10:46:39;95413.59;;;33.47;27.62
79077;BME280;68477;42.698;23.342;2023-07-24T10:49:06;95406.28;;;33.56;28.65
79077;BME280;68477;42.698;23.342;2023-07-24T10:51:32;95406.31;;;34.13;28.40
79077;BME280;68477;42.698;23.342;2023-07-24T10:53:59;95400.25;;;32.92;29.33
79077;BME280;68477;42.698;23.342;2023-07-24T10:56:25;95403.13;;;33.72;27.80
79077;BME280;68477;42.698;23.342;2023-07-24T10:58:50;95393.47;;;34.14;27.64
79077;BME280;68477;42.698;23.342;2023-07-24T11:01:17;95388.63;;;33.54;28.35
79077;BME280;68477;42.698;23.342;2023-07-24T11:03:43;95391.75;;;33.16;27.25
79077;BME280;68477;42.698;23.342;2023-07-24T11:06:17;95384.91;;;33.90;27.56
79077;BME280;68477;42.698;23.342;2023-07-24T11:08:57;95385.44;;;33.69;26.73
79077;BME280;68477;42.698;23.342;2023-07-24T11:11:35;95385.50;;;34.69;26.86
79077;BME280;68477;42.698;23.342;2023-07-24T11:14:04;95390.06;;;34.08;28.77
79077;BME280;68477;42.698;23.342;2023-07-24T11:16:29;95373.28;;;33.75;29.14
79077;BME280;68477;42.698;23.342;2023-07-24T11:18:58;95368.13;;;34.22;28.00
79077;BME280;68477;42.698;23.342;2023-07-24T11:21:24;95364.59;;;33.34;29.75
79077;BME280;68477;42.698;23.342;2023-07-24T11:23:55;95362.94;;;33.24;29.81
79077;BME280;68477;42.698;23.342;2023-07-24T11:26:25;95372.91;;;33.99;29.08
79077;BME280;68477;42.698;23.342;2023-07-24T11:28:52;95367.50;;;34.42;25.73
79077;BME280;68477;42.698;23.342;2023-07-24T11:31:18;95359.97;;;33.82;25.12
79077;BME280;68477;42.698;23.342;2023-07-24T11:33:46;95361.00;;;33.24;27.11
79077;BME280;68477;42.698;23.342;2023-07-24T11:36:13;95349.47;;;33.27;26.94
79077;BME280;68477;42.698;23.342;2023-07-24T11:38:39;95347.59;;;33.06;27.08
79077;BME280;68477;42.698;23.342;2023-07-24T11:41:04;95352.03;;;34.29;26.27
79077;BME280;68477;42.698;23.342;2023-07-24T11:43:30;95351.44;;;34.58;25.53
79077;BME280;68477;42.698;23.342;2023-07-24T11:45:56;95346.38;;;34.08;26.23
79077;BME280;68477;42.698;23.342;2023-07-24T11:48:23;95340.97;;;34.52;25.84
79077;BME280;68477;42.698;23.342;2023-07-24T11:50:53;95342.09;;;34.68;26.09
79077;BME280;68477;42.698;23.342;2023-07-24T11:53:27;95335.81;;;34.85;25.37
79077;BME280;68477;42.698;23.342;2023-07-24T11:55:55;95343.91;;;35.37;25.37
79077;BME280;68477;42.698;23.342;2023-07-24T11:58:22;95342.47;;;35.30;25.97
79077;BME280;68477;42.698;23.342;2023-07-24T12:00:48;95337.03;;;35.69;25.25
79077;BME280;68477;42.698;23.342;2023-07-24T12:03:18;95333.56;;;35.51;24.69
79077;BME280;68477;42.698;23.342;2023-07-24T12:05:44;95330.84;;;35.34;25.75
79077;BME280;68477;42.698;23.342;2023-07-24T12:08:10;95323.78;;;35.79;26.18
79077;BME280;68477;42.698;23.342;2023-07-24T12:10:37;95333.03;;;35.96;25.27
79077;BME280;68477;42.698;23.342;2023-07-24T12:13:04;95327.19;;;35.68;24.61
79077;BME280;68477;42.698;23.342;2023-07-24T12:15:30;95328.66;;;35.65;24.86
79077;BME280;68477;42.698;23.342;2023-07-24T12:17:56;95326.28;;;35.55;25.18
79077;BME280;68477;42.698;23.342;2023-07-24T12:20:22;95326.16;;;34.18;27.24
79077;BME280;68477;42.698;23.342;2023-07-24T12:22:48;95333.59;;;35.42;25.50
79077;BME280;68477;42.698;23.342;2023-07-24T12:25:14;95335.03;;;35.78;24.45
79077;BME280;68477;42.698;23.342;2023-07-24T12:27:41;95332.22;;;35.95;24.90
79077;BME280;68477;42.698;23.342;2023-07-24T12:30:07;95321.16;;;35.83;24.97
79077;BME280;68477;42.698;23.342;2023-07-24T12:32:33;95316.56;;;36.25;24.09
79077;BME280;68477;42.698;23.342;2023-07-24T12:34:58;95312.19;;;36.24;24.24
79077;BME280;68477;42.698;23.342;2023-07-24T12:37:24;95305.22;;;35.09;24.45
79077;BME280;68477;42.698;23.342;2023-07-24T12:39:49;95312.13;;;35.15;25.31
79077;BME280;68477;42.698;23.342;2023-07-24T12:42:15;95307.56;;;34.55;24.77
79077;BME280;68477;42.698;23.342;2023-07-24T12:44:42;95299.78;;;35.76;23.61
79077;BME280;68477;42.698;23.342;2023-07-24T12:47:07;95299.59;;;35.52;23.55
79077;BME280;68477;42.698;23.342;2023-07-24T12:49:33;95290.50;;;36.94;23.63